Flight Track Log - Related Links

Times and Time Zones

All times are in EDT time to prevent confusion due to time zone crossing. See the N405QS flight status page for this flight to view local times or setup timezone preferences in your user account.

Time Position Orientation Groundspeed Altitude Reporting Facility
EDT Latitude Longitude Course Direction KTS MPH feet Rate Location/Type
Mon 04:25:00 PM 40.8333 -74.0833 255° West 199 229 1,200  Level New York TRACON
Mon 04:26:00 PM 40.8167 -74.1667 255° West 212 244 1,500 1,000 Climbing New York TRACON
Mon 04:27:00 PM 40.7833 -74.2333 237° Southwest 216 249 3,200 2,500 Climbing New York TRACON
Mon 04:28:00 PM 40.7167 -74.2167 169° South 256 295 6,500 3,727 Climbing New York TRACON
Mon 04:29:41 PM 40.6064 -74.2453 191° South 296 341 13,200 3,370 Climbing New York Center
Mon 04:30:42 PM 40.4947 -74.2153 168° South 365 420 15,600 1,253 Climbing New York Center
Mon 04:32:43 PM 40.2967 -74.2217 181° South 379 436 17,000 961 Climbing New York Center
Mon 04:33:43 PM 40.1919 -74.2353 186° South 384 442 18,500 1,840 Climbing New York Center
Mon 04:35:13 PM 40.0331 -74.2503 184° South 395 455 21,600 2,377 Climbing Washington Center
Mon 04:37:15 PM 39.8347 -74.4161 195° South 413 475 26,900 2,581 Climbing Washington Center
Mon 04:38:12 PM 39.7442 -74.5283 224° Southwest 436 502 29,300 2,514 Climbing Washington Center
Mon 04:40:14 PM 39.5689 -74.7625 226° Southwest 450 518 34,400 2,233 Climbing Washington Center
Mon 04:41:12 PM 39.4822 -74.8764 225° Southwest 450 518 36,000 807 Climbing Washington Center
Mon 04:42:13 PM 39.3972 -74.9872 225° Southwest 450 518 36,000  Level Washington Center
Mon 04:43:13 PM 39.3103 -75.0981 225° Southwest 445 512 36,000  Level Washington Center
Mon 04:44:14 PM 39.2000 -75.1578 203° Southwest 438 504 36,000 1,167 Level Washington Center
Mon 04:46:13 PM 38.9669 -75.2553 198° South 433 498 39,500 1,333 Climbing Washington Center
Mon 04:47:14 PM 38.8525 -75.3039 198° South 433 498 40,000 198 Climbing Washington Center
Mon 04:48:14 PM 38.7400 -75.3522 199° South 433 498 39,900  Descending Washington Center
Mon 04:49:14 PM 38.6253 -75.4003 198° South 433 498 40,000 51 Climbing Washington Center
Mon 04:50:12 PM 38.5108 -75.4431 196° South 433 498 40,000  Level Washington Center
Mon 04:51:12 PM 38.4003 -75.5097 205° Southwest 438 504 40,000  Level Washington Center
Mon 04:52:13 PM 38.2836 -75.5839 207° Southwest 431 496 40,000  Level Washington Center
Mon 04:53:13 PM 38.1814 -75.6550 209° Southwest 431 496 40,000  Level Washington Center
Mon 04:54:14 PM 38.0792 -75.7289 210° Southwest 431 496 40,000  Level Washington Center
Mon 04:55:15 PM 37.9917 -75.7972 212° Southwest 426 490 40,000  Level Washington Center
Mon 04:56:13 PM 37.8747 -75.8706 206° Southwest 426 490 40,000  Level Washington Center
Mon 04:58:00 PM 37.7063 -75.9883 209° Southwest  Level FlightAware Approximate
Mon 05:01:13 PM 37.3603 -76.2294 208° Southwest 421 484 40,000  Level Washington Center
Mon 05:02:13 PM 37.2575 -76.2989 208° Southwest 416 479 40,000  Level Washington Center
Mon 05:03:15 PM 37.1550 -76.3711 209° Southwest 416 479 40,000  Level Washington Center
Mon 05:04:12 PM 37.0625 -76.4611 218° Southwest 421 484 40,000  Level Washington Center
Mon 05:05:00 PM 37.0433 -76.4437 208° Southwest  Level FlightAware Approximate
Mon 05:05:13 PM 36.9722 -76.5539 219° Southwest 426 490 40,000  Level Washington Center
Mon 05:06:00 PM 36.9480 -76.5072 208° Southwest  Level FlightAware Approximate
Mon 05:06:13 PM 36.8858 -76.6461 221° Southwest 426 490 40,000  Level Washington Center
Mon 05:08:00 PM 36.7381 -76.7991 220° Southwest  Level FlightAware Approximate
Mon 05:09:15 PM 36.6181 -76.9169 220° Southwest 419 482 40,000  Level Washington Center
Mon 05:10:13 PM 36.5294 -77.0111 221° Southwest 419 482 40,000  Level Washington Center
Mon 05:11:14 PM 36.4428 -77.1025 220° Southwest 419 482 40,000  Level Washington Center
Mon 05:13:13 PM 36.2672 -77.2769 219° Southwest 409 471 40,000  Level Washington Center
Mon 05:15:14 PM 36.0978 -77.4531 220° Southwest 404 465 40,000  Level Washington Center
Mon 05:16:14 PM 36.0044 -77.5433 218° Southwest 417 480 40,000  Level Washington Center
Mon 05:18:00 PM 35.8563 -77.6905 219° Southwest  Level FlightAware Approximate
Mon 05:19:13 PM 35.7328 -77.8156 219° Southwest 427 491 40,000  Level Washington Center
Mon 05:20:14 PM 35.6433 -77.9025 218° Southwest 427 491 40,000  Level Washington Center
Mon 05:21:14 PM 35.5561 -77.9894 219° Southwest 421 484 40,000  Level Washington Center
Mon 05:22:15 PM 35.4667 -78.0761 218° Southwest 421 484 40,000  Level Washington Center
Mon 05:23:12 PM 35.3772 -78.1650 219° Southwest 421 484 40,000  Level Washington Center
Mon 05:24:13 PM 35.2878 -78.2536 219° Southwest 421 484 40,000  Level Washington Center
Mon 05:25:14 PM 35.2067 -78.3322 218° Southwest 421 484 40,000  Level Washington Center
Mon 05:26:15 PM 35.1169 -78.4181 218° Southwest 421 484 40,000  Level Washington Center
Mon 05:27:13 PM 35.0294 -78.5064 220° Southwest 416 479 40,000  Level Washington Center
Mon 05:28:13 PM 34.9417 -78.5919 219° Southwest 416 479 40,000  Level Washington Center
Mon 05:29:13 PM 34.8519 -78.6797 219° Southwest 416 479 40,000  Level Washington Center
Mon 05:31:26 PM 34.6406 -78.8803 218° Southwest 419 482 40,000  Level Jacksonville Center
Mon 05:32:26 PM 34.5472 -78.9678 218° Southwest 419 482 40,000  Level Jacksonville Center
Mon 05:33:26 PM 34.4686 -79.0544 222° Southwest 424 488 40,000  Level Jacksonville Center
Mon 05:34:26 PM 34.3753 -79.1442 218° Southwest 424 488 40,000 -222 Level Jacksonville Center
Mon 05:36:00 PM 34.2418 -79.2685 218° Southwest  Level FlightAware Approximate
Mon 05:37:02 PM 34.1294 -79.3731 218° Southwest 424 488 39,200  Level Jacksonville Center
Mon 05:38:02 PM 34.0461 -79.4514 218° Southwest 423 487 38,300 -1,200 Descending Jacksonville Center
Mon 05:39:02 PM 33.9547 -79.5403 219° Southwest 423 487 36,800 -1,150 Descending Jacksonville Center
Mon 05:40:02 PM 33.8631 -79.6261 218° Southwest 423 487 36,000 -400 Descending Jacksonville Center
Mon 05:41:02 PM 33.7733 -79.7094 218° Southwest 423 487 36,000 -1,071 Level Jacksonville Center
Mon 05:42:50 PM 33.6081 -79.8650 218° Southwest 423 487 33,000 -1,929 Descending Jacksonville Center
Mon 05:43:50 PM 33.5183 -79.9478 218° Southwest 418 481 30,600 -2,400 Descending Jacksonville Center
Mon 05:44:50 PM 33.4303 -80.0306 218° Southwest 418 481 28,200 -2,400 Descending Jacksonville Center
Mon 05:45:50 PM 33.3425 -80.1128 218° Southwest 413 475 25,800 -2,150 Descending Jacksonville Center
Mon 05:46:50 PM 33.2606 -80.1875 217° Southwest 402 463 23,900 -1,700 Descending Jacksonville Center
Mon 05:48:00 PM 33.1560 -80.2663 212° Southwest  Level FlightAware Approximate
Mon 05:49:50 PM 33.0333 -80.4000 217° Southwest 369 425 19,000  Level Jacksonville Center
Mon 05:50:50 PM 32.9514 -80.4739 217° Southwest 369 425 17,500 -1,450 Descending Jacksonville Center
Mon 05:52:00 PM 32.8477 -80.5541 213° Southwest  Level FlightAware Approximate
Mon 05:53:50 PM 32.7256 -80.6775 220° Southwest 358 412 13,200  Level Jacksonville Center
Mon 05:54:50 PM 32.6514 -80.7436 217° Southwest 351 404 11,800 -1,400 Descending Jacksonville Center
Mon 05:55:00 PM 32.5634 -80.7980 217° Southwest  Level FlightAware Approximate
Mon 05:55:50 PM 32.5919 -80.8017 219° Southwest 320 368 10,400  Level Jacksonville Center
Mon 05:56:50 PM 32.5239 -80.8622 217° Southwest 269 310 8,200 -1,900 Descending Jacksonville Center
Mon 05:58:00 PM 32.4154 -80.9346 220° Southwest  Level FlightAware Approximate
Mon 05:59:00 PM 32.2535 -81.0798 220° Southwest  Level FlightAware Approximate
Mon 05:59:50 PM 32.3422 -80.9869 180° South 259 298 2,800  Level Jacksonville Center
Mon 06:01:00 PM 32.2480 -81.0816 239° Southwest  Level Estimated
Mon 06:01:50 PM 32.2283 -81.0606 239° Southwest 216 249 1,900  Level Jacksonville Center
Mon 06:03:00 PM 32.1471 -81.1817 228° Southwest  Level FlightAware Approximate
Mon 06:05:00 PM 32.1276 -81.2021 180° South  Level Estimated
Mon 06:05:50 PM 32.1281 -81.2022 180° South 136 157 300  Level Jacksonville Center
Mon 06:06:50 PM 32.1286 -81.2464 271° West 136 157 24,000 23,700 Climbing Jacksonville Center
Mon 06:08:00 PM 32.1167 -81.2000 180° South  Level FlightAware Approximate
Mon 06:10:00 PM 32.1276 -81.2021 180° South  Level Estimated
Mon 06:11:00 PM 32.1276 -81.2021 180° South  Level Estimated
Mon 06:15:00 PM 32.1276 -81.2021 180° South  Level Estimated

Login

Don't have an account? Register now (free) for customized features, flight alerts, and more!